OPKC/KHI METAR and TAF weather

Enter ICAO airport designator
Station Type Date Time Source
OPKC METAR 2019/06/26 19:55 UTC NOAA

OPKC 261955Z 26013KT 6000 BKN020 31/24 Q1002 NOSIG


Station Type Date Time Source
OPKC Decoded METAR 2019/06/26 19:55 UTC NOAA

Karachi Airport, Pakistan (OPKC) 24-54N 067-08E 22M
Jun 26, 2019 - 03:55 PM EDT / 2019.06.26 1955 UTC
Wind: from the W (260 degrees) at 15 MPH (13 KT):0
Visibility: 3 mile(s):0
Sky conditions: mostly cloudy
Temperature: 87 F (31 C)
Heat index: 95.7 F (35.4 C):1
Dew Point: 75 F (24 C)
Relative Humidity: 66%
Pressure (altimeter): 29.59 in. Hg (1002 hPa)
ob: OPKC 261955Z 26013KT 6000 BKN020 31/24 Q1002 NOSIG
cycle: 20

Station Type Date Time Source
OPKC TAF 2019/06/26 18:46 UTC NOAA

TAF OPKC 261600Z 2618/2724 24010G20KT 6000 SCT020
TEMPO 2700/2704 25005G15KT 5000 HZ BKN020

Example: see airport list